Time;durP1;ratioP1;P1;durP2;ratioP2;P2;SDS_P1;SDS_P2;PMS_P1;PMS_P2;Temp;Humidity;BMP_temperature;BMP_pressure;BME280_temperature;BME280_humidity;BME280_pressure;Samples;Min_cycle;Max_cycle;Signal;HPM_P1;HPM_P2
2022/10/29 00:00:28;;;;;;;9.30;3.20;;;;;;;;;;103621;1306;22515;-88
2022/10/29 00:03:14;;;;;;;10.20;3.30;;;;;;;;;;103581;1306;22606;-91
2022/10/29 00:05:41;;;;;;;10.60;3.80;;;;;;;;;;103525;1306;23925;-88
2022/10/29 00:08:08;;;;;;;8.30;3.60;;;;;;;;;;103508;1306;22467;-89
2022/10/29 00:10:36;;;;;;;10.80;3.60;;;;;;;;;;103317;1307;22463;-88
2022/10/29 00:13:04;;;;;;;9.40;3.20;;;;;;;;;;103620;1306;24341;-93
2022/10/29 00:15:31;;;;;;;10.60;3.90;;;;;;;;;;103328;1301;22778;-88
2022/10/29 00:17:57;;;;;;;9.70;3.40;;;;;;;;;;103517;1306;22463;-90
2022/10/29 00:20:24;;;;;;;10.00;3.50;;;;;;;;;;103509;1305;22498;-90
2022/10/29 00:22:53;;;;;;;10.30;3.60;;;;;;;;;;103566;1304;24327;-91
2022/10/29 00:25:20;;;;;;;11.30;4.00;;;;;;;;;;103433;1281;22464;-93
2022/10/29 00:27:47;;;;;;;9.40;4.00;;;;;;;;;;103626;1304;26451;-93
2022/10/29 00:30:13;;;;;;;10.10;3.80;;;;;;;;;;103569;1291;23862;-93
2022/10/29 00:32:40;;;;;;;10.80;4.10;;;;;;;;;;103489;1293;22503;-91
2022/10/29 00:35:07;;;;;;;9.00;3.50;;;;;;;;;;103451;1305;22875;-92
2022/10/29 00:37:33;;;;;;;9.80;4.10;;;;;;;;;;103551;1307;22467;-88
2022/10/29 00:40:00;;;;;;;8.50;3.20;;;;;;;;;;103727;1299;22757;-89
2022/10/29 00:42:27;;;;;;;8.30;3.40;;;;;;;;;;103582;1285;22438;-87
2022/10/29 00:44:53;;;;;;;9.20;3.80;;;;;;;;;;104088;1306;22462;-91
2022/10/29 00:47:28;;;;;;;11.50;3.60;;;;;;;;;;104033;1307;24217;-90
2022/10/29 00:49:58;;;;;;;9.90;3.20;;;;;;;;;;104020;1306;22470;-89
2022/10/29 00:52:27;;;;;;;8.50;3.80;;;;;;;;;;104116;1306;22712;-89
2022/10/29 00:54:55;;;;;;;8.60;3.50;;;;;;;;;;103987;1306;22568;-90
2022/10/29 00:57:27;;;;;;;11.40;3.50;;;;;;;;;;104396;1306;22629;-90
2022/10/29 00:59:54;;;;;;;12.60;3.60;;;;;;;;;;104183;1306;22845;-90
2022/10/29 01:02:21;;;;;;;8.90;3.50;;;;;;;;;;103871;1306;22531;-90
2022/10/29 01:04:48;;;;;;;9.70;3.70;;;;;;;;;;103813;1305;24401;-89
2022/10/29 01:07:15;;;;;;;9.80;3.40;;;;;;;;;;103840;1307;22536;-90
2022/10/29 01:09:41;;;;;;;9.10;3.40;;;;;;;;;;103869;1306;22831;-90
2022/10/29 01:12:11;;;;;;;9.20;3.60;;;;;;;;;;103983;1307;22487;-89
2022/10/29 01:14:37;;;;;;;12.20;3.90;;;;;;;;;;103902;1306;24272;-89
2022/10/29 01:17:16;;;;;;;12.20;3.70;;;;;;;;;;104177;1306;25285;-88
2022/10/29 01:20:02;;;;;;;10.10;4.10;;;;;;;;;;104116;1307;22704;-92
2022/10/29 01:22:28;;;;;;;9.30;3.90;;;;;;;;;;104036;1306;22546;-88
2022/10/29 01:25:05;;;;;;;10.80;4.20;;;;;;;;;;104403;1285;25362;-87
2022/10/29 01:27:35;;;;;;;9.00;3.80;;;;;;;;;;104081;1306;23170;-88
2022/10/29 01:30:08;;;;;;;11.00;3.70;;;;;;;;;;103645;1306;25940;-90
2022/10/29 01:32:45;;;;;;;9.50;3.80;;;;;;;;;;104077;1304;21790;-87
2022/10/29 01:35:12;;;;;;;12.50;3.80;;;;;;;;;;104710;1304;22476;-90
2022/10/29 01:37:41;;;;;;;12.50;4.00;;;;;;;;;;103927;1285;24228;-89
2022/10/29 01:40:17;;;;;;;11.20;3.60;;;;;;;;;;103780;1307;22594;-90
2022/10/29 01:43:02;;;;;;;11.30;4.10;;;;;;;;;;103784;1306;22484;-89
2022/10/29 01:45:32;;;;;;;11.30;4.10;;;;;;;;;;103374;1307;22488;-90
2022/10/29 01:48:11;;;;;;;10.90;4.00;;;;;;;;;;103656;1292;22476;-94
2022/10/29 01:50:38;;;;;;;12.20;3.90;;;;;;;;;;103428;1306;22477;-89
2022/10/29 01:53:05;;;;;;;10.00;3.70;;;;;;;;;;103867;1306;25230;-89
2022/10/29 01:55:35;;;;;;;10.60;3.70;;;;;;;;;;104067;1306;22361;-90
2022/10/29 01:58:03;;;;;;;12.50;4.30;;;;;;;;;;104207;1306;22455;-89
2022/10/29 02:00:36;;;;;;;11.10;4.60;;;;;;;;;;103769;1306;22475;-90
2022/10/29 02:03:15;;;;;;;10.30;4.00;;;;;;;;;;103686;1307;25363;-92
2022/10/29 02:05:42;;;;;;;11.50;4.40;;;;;;;;;;103840;1306;22482;-89
2022/10/29 02:08:13;;;;;;;10.20;4.20;;;;;;;;;;104259;1298;22542;-88
2022/10/29 02:10:47;;;;;;;10.50;4.10;;;;;;;;;;103999;1307;24326;-86
2022/10/29 02:13:15;;;;;;;9.90;4.40;;;;;;;;;;104105;1306;24156;-90
2022/10/29 02:15:47;;;;;;;12.40;4.00;;;;;;;;;;103836;1304;25828;-91
2022/10/29 02:18:15;;;;;;;10.60;4.40;;;;;;;;;;103362;1307;22525;-91
2022/10/29 02:20:43;;;;;;;11.20;4.50;;;;;;;;;;103599;1293;22476;-88
2022/10/29 02:23:10;;;;;;;9.90;4.30;;;;;;;;;;103758;1306;22432;-89
2022/10/29 02:25:37;;;;;;;13.30;4.80;;;;;;;;;;103687;1307;22436;-89
2022/10/29 02:28:04;;;;;;;11.00;4.30;;;;;;;;;;103717;1306;22563;-91
2022/10/29 02:30:32;;;;;;;12.20;4.40;;;;;;;;;;103721;1306;22519;-89
2022/10/29 02:32:59;;;;;;;11.00;4.10;;;;;;;;;;103364;1288;25009;-89
2022/10/29 02:35:25;;;;;;;9.30;4.00;;;;;;;;;;103367;1288;22627;-88
2022/10/29 02:37:52;;;;;;;13.70;4.60;;;;;;;;;;103355;1306;23189;-88
2022/10/29 02:40:19;;;;;;;11.90;4.50;;;;;;;;;;103401;1306;24270;-90
2022/10/29 02:42:45;;;;;;;9.50;4.00;;;;;;;;;;103608;1306;25262;-87
2022/10/29 02:45:12;;;;;;;12.40;4.40;;;;;;;;;;103602;1306;22470;-89
2022/10/29 02:47:38;;;;;;;11.20;4.00;;;;;;;;;;103607;1297;21835;-89
2022/10/29 02:50:06;;;;;;;10.80;4.10;;;;;;;;;;103516;1291;22531;-90
2022/10/29 02:52:32;;;;;;;12.00;4.60;;;;;;;;;;103674;1290;22485;-87
2022/10/29 02:54:59;;;;;;;10.20;3.80;;;;;;;;;;103773;1306;24226;-86
2022/10/29 02:57:25;;;;;;;11.40;3.90;;;;;;;;;;103904;1306;25247;-90
2022/10/29 02:59:52;;;;;;;13.50;4.50;;;;;;;;;;103855;1306;24781;-92
2022/10/29 03:02:18;;;;;;;10.30;4.00;;;;;;;;;;104297;1299;24296;-90
2022/10/29 03:04:45;;;;;;;11.70;3.80;;;;;;;;;;104492;1306;22640;-89
2022/10/29 03:07:12;;;;;;;10.50;4.50;;;;;;;;;;104660;1307;22477;-92
2022/10/29 03:09:38;;;;;;;11.50;3.70;;;;;;;;;;104223;1306;24221;-89
2022/10/29 03:12:05;;;;;;;12.50;3.90;;;;;;;;;;104414;1306;22498;-90
2022/10/29 03:14:31;;;;;;;10.60;4.40;;;;;;;;;;104219;1294;25464;-90
2022/10/29 03:16:58;;;;;;;10.60;4.00;;;;;;;;;;103871;1306;25607;-90
2022/10/29 03:19:25;;;;;;;12.70;4.10;;;;;;;;;;104741;1305;22465;-92
2022/10/29 03:21:51;;;;;;;12.50;4.00;;;;;;;;;;104080;1301;23849;-90
2022/10/29 03:24:18;;;;;;;10.10;4.00;;;;;;;;;;103976;1306;22273;-91
2022/10/29 03:26:44;;;;;;;11.90;4.10;;;;;;;;;;104288;1306;24491;-89
2022/10/29 03:29:11;;;;;;;10.70;4.10;;;;;;;;;;104559;1285;22483;-89
2022/10/29 03:31:38;;;;;;;11.70;3.90;;;;;;;;;;103919;1306;24241;-90
2022/10/29 03:34:04;;;;;;;9.60;3.60;;;;;;;;;;104659;1304;22459;-91
2022/10/29 03:36:31;;;;;;;9.10;4.20;;;;;;;;;;104403;1301;22430;-89
2022/10/29 03:38:57;;;;;;;10.20;4.30;;;;;;;;;;104855;1278;22553;-90
2022/10/29 03:41:24;;;;;;;10.80;4.30;;;;;;;;;;104751;1307;22441;-87
2022/10/29 03:43:50;;;;;;;12.40;4.20;;;;;;;;;;104232;1306;22479;-88
2022/10/29 03:46:17;;;;;;;8.80;3.80;;;;;;;;;;104383;1306;25212;-93
2022/10/29 03:48:43;;;;;;;10.50;4.00;;;;;;;;;;104422;1306;22476;-86
2022/10/29 03:51:10;;;;;;;11.70;4.20;;;;;;;;;;104251;1305;25449;-93
2022/10/29 03:53:37;;;;;;;11.40;4.00;;;;;;;;;;103893;1306;22458;-89
2022/10/29 03:56:04;;;;;;;12.70;4.20;;;;;;;;;;103577;1306;22461;-91
2022/10/29 03:58:31;;;;;;;13.60;4.50;;;;;;;;;;103456;1306;22469;-89
2022/10/29 04:00:58;;;;;;;11.10;3.90;;;;;;;;;;103673;1292;25254;-89
2022/10/29 04:03:26;;;;;;;11.60;3.80;;;;;;;;;;103807;1306;22511;-90
2022/10/29 04:05:53;;;;;;;11.10;4.00;;;;;;;;;;103751;1306;24282;-88
2022/10/29 04:08:20;;;;;;;9.20;3.30;;;;;;;;;;103916;1307;22475;-89
2022/10/29 04:10:47;;;;;;;11.00;3.70;;;;;;;;;;103550;1304;22525;-92
2022/10/29 04:13:14;;;;;;;11.80;4.40;;;;;;;;;;103593;1306;22456;-90
2022/10/29 04:15:41;;;;;;;10.70;4.30;;;;;;;;;;103826;1302;22491;-90
2022/10/29 04:18:08;;;;;;;12.60;4.20;;;;;;;;;;103965;1306;22459;-87
2022/10/29 04:20:35;;;;;;;13.00;4.00;;;;;;;;;;103515;1305;22501;-89
2022/10/29 04:23:02;;;;;;;14.80;4.20;;;;;;;;;;103524;1306;25380;-89
2022/10/29 04:25:29;;;;;;;10.50;3.90;;;;;;;;;;104114;1306;22471;-85
2022/10/29 04:27:56;;;;;;;12.50;3.70;;;;;;;;;;103764;1306;25647;-87
2022/10/29 04:30:23;;;;;;;13.10;4.20;;;;;;;;;;103373;1288;25247;-90
2022/10/29 04:32:50;;;;;;;12.90;4.40;;;;;;;;;;103523;1306;25362;-90
2022/10/29 04:35:16;;;;;;;12.10;4.00;;;;;;;;;;103444;1285;22824;-92
2022/10/29 04:37:43;;;;;;;10.50;3.70;;;;;;;;;;103490;1306;25319;-91
2022/10/29 04:40:10;;;;;;;9.50;4.10;;;;;;;;;;103428;1306;22558;-90
2022/10/29 04:42:37;;;;;;;11.80;4.20;;;;;;;;;;103452;1306;24244;-93
2022/10/29 04:45:04;;;;;;;11.10;4.40;;;;;;;;;;103474;1307;22477;-86
2022/10/29 04:47:31;;;;;;;13.70;4.40;;;;;;;;;;103587;1306;25516;-91
2022/10/29 04:49:58;;;;;;;10.30;4.30;;;;;;;;;;103420;1306;24262;-89
2022/10/29 04:52:25;;;;;;;14.30;4.40;;;;;;;;;;103545;1306;22460;-90
2022/10/29 04:54:51;;;;;;;8.80;4.00;;;;;;;;;;103567;1304;22520;-94
2022/10/29 04:57:18;;;;;;;9.40;3.80;;;;;;;;;;103673;1299;23096;-92
2022/10/29 04:59:44;;;;;;;11.30;4.40;;;;;;;;;;103370;1288;26735;-92
2022/10/29 05:02:11;;;;;;;10.40;4.20;;;;;;;;;;103180;1306;22465;-88
2022/10/29 05:04:37;;;;;;;15.50;4.50;;;;;;;;;;103519;1291;22508;-90
2022/10/29 05:07:04;;;;;;;14.80;4.30;;;;;;;;;;103245;1288;22460;-87
2022/10/29 05:09:31;;;;;;;13.80;3.80;;;;;;;;;;103415;1306;22535;-92
2022/10/29 05:11:57;;;;;;;15.00;4.40;;;;;;;;;;103598;1306;25913;-86
2022/10/29 05:14:24;;;;;;;11.80;4.10;;;;;;;;;;103113;1306;25606;-86
2022/10/29 05:16:50;;;;;;;14.40;4.30;;;;;;;;;;103545;1285;24360;-89
2022/10/29 05:19:17;;;;;;;10.10;4.10;;;;;;;;;;103250;1306;22481;-91
2022/10/29 05:21:43;;;;;;;11.40;4.00;;;;;;;;;;103165;1303;25271;-87
2022/10/29 05:24:10;;;;;;;10.90;4.30;;;;;;;;;;103670;1297;24798;-90
2022/10/29 05:26:37;;;;;;;11.30;4.10;;;;;;;;;;103474;1307;22668;-91
2022/10/29 05:29:03;;;;;;;8.90;3.50;;;;;;;;;;103349;1301;22447;-91
2022/10/29 05:31:30;;;;;;;13.50;4.10;;;;;;;;;;103293;1306;24393;-88
2022/10/29 05:33:56;;;;;;;13.80;4.80;;;;;;;;;;103413;1295;22478;-94
2022/10/29 05:47:42;;;;;;;15.50;5.20;;;;;;;;;;100357;1342;544741;-92
2022/10/29 05:50:10;;;;;;;13.20;4.90;;;;;;;;;;102511;1319;22500;-88
2022/10/29 05:52:37;;;;;;;13.20;5.30;;;;;;;;;;102391;1319;22485;-87
2022/10/29 05:55:04;;;;;;;12.70;4.90;;;;;;;;;;102539;1319;25399;-86
2022/10/29 05:57:31;;;;;;;12.40;4.90;;;;;;;;;;103140;1304;22427;-91
2022/10/29 05:59:58;;;;;;;13.50;4.50;;;;;;;;;;103257;1310;22460;-84
2022/10/29 06:02:24;;;;;;;12.30;4.40;;;;;;;;;;103147;1304;149088;-86
2022/10/29 06:04:51;;;;;;;12.60;4.50;;;;;;;;;;103338;1306;25806;-87
2022/10/29 06:07:17;;;;;;;18.90;4.50;;;;;;;;;;103395;1300;22482;-91
2022/10/29 06:09:44;;;;;;;13.00;4.80;;;;;;;;;;103505;1305;22464;-92
2022/10/29 06:12:11;;;;;;;11.50;4.30;;;;;;;;;;103438;1306;25333;-91
2022/10/29 06:14:37;;;;;;;15.50;4.30;;;;;;;;;;103489;1306;24374;-87
2022/10/29 06:17:04;;;;;;;14.20;4.60;;;;;;;;;;103324;1306;24228;-94
2022/10/29 06:19:30;;;;;;;13.10;4.20;;;;;;;;;;103347;1307;24325;-87
2022/10/29 06:21:57;;;;;;;16.00;4.50;;;;;;;;;;103441;1306;26450;-89
2022/10/29 06:24:23;;;;;;;14.10;4.40;;;;;;;;;;103438;1307;22723;-86
2022/10/29 06:26:52;;;;;;;11.30;4.10;;;;;;;;;;103415;1301;22519;-90
2022/10/29 06:29:18;;;;;;;14.80;4.20;;;;;;;;;;103472;1304;22463;-87
2022/10/29 06:31:45;;;;;;;11.70;4.90;;;;;;;;;;103461;1306;22481;-88
2022/10/29 06:34:13;;;;;;;14.40;4.60;;;;;;;;;;103440;1306;22484;-92
2022/10/29 06:36:43;;;;;;;14.00;5.00;;;;;;;;;;103441;1301;22463;-88
2022/10/29 06:39:09;;;;;;;14.90;5.20;;;;;;;;;;103452;1298;22474;-90
2022/10/29 06:41:36;;;;;;;14.40;4.50;;;;;;;;;;103397;1283;25324;-90
2022/10/29 06:44:03;;;;;;;14.70;6.10;;;;;;;;;;103450;1306;22482;-93
2022/10/29 06:46:32;;;;;;;16.40;6.00;;;;;;;;;;103570;1306;24012;-84
2022/10/29 06:49:01;;;;;;;16.80;5.50;;;;;;;;;;103419;1283;25333;-91
2022/10/29 06:51:28;;;;;;;15.20;5.00;;;;;;;;;;103511;1292;24170;-87
2022/10/29 06:53:54;;;;;;;15.30;4.30;;;;;;;;;;103514;1307;22468;-92
2022/10/29 06:56:21;;;;;;;15.40;4.50;;;;;;;;;;103450;1299;23190;-86
2022/10/29 06:58:47;;;;;;;16.00;4.70;;;;;;;;;;103446;1306;24182;-89
2022/10/29 07:01:14;;;;;;;10.60;3.90;;;;;;;;;;103290;1306;24244;-87
2022/10/29 07:03:40;;;;;;;18.40;4.60;;;;;;;;;;103562;1305;24469;-87
2022/10/29 07:06:07;;;;;;;13.80;4.20;;;;;;;;;;103660;1284;25538;-89
2022/10/29 07:08:34;;;;;;;13.90;4.50;;;;;;;;;;103368;1281;26432;-86
2022/10/29 07:11:01;;;;;;;12.30;4.20;;;;;;;;;;103443;1292;22429;-86
2022/10/29 07:13:28;;;;;;;10.90;4.50;;;;;;;;;;103603;1285;22509;-87
2022/10/29 07:15:55;;;;;;;15.50;4.70;;;;;;;;;;103652;1288;23889;-85
2022/10/29 07:18:22;;;;;;;13.60;3.60;;;;;;;;;;103484;1283;22628;-86
2022/10/29 07:20:49;;;;;;;13.40;4.50;;;;;;;;;;103542;1279;22458;-88
2022/10/29 07:23:16;;;;;;;14.80;4.10;;;;;;;;;;103478;1283;22486;-86
2022/10/29 07:25:43;;;;;;;14.40;4.10;;;;;;;;;;103268;1291;25231;-86
2022/10/29 07:28:15;;;;;;;17.00;4.50;;;;;;;;;;103484;1275;24278;-84
2022/10/29 07:30:42;;;;;;;21.80;4.90;;;;;;;;;;103440;1281;24384;-86
2022/10/29 07:33:10;;;;;;;20.70;5.00;;;;;;;;;;103638;1295;24269;-85
2022/10/29 07:35:36;;;;;;;14.20;4.70;;;;;;;;;;103515;1292;22602;-87
2022/10/29 07:38:05;;;;;;;39.70;6.50;;;;;;;;;;103519;1275;22479;-86
2022/10/29 07:40:33;;;;;;;12.30;4.10;;;;;;;;;;103495;1275;26654;-84
2022/10/29 07:42:59;;;;;;;12.80;3.80;;;;;;;;;;103457;1283;22461;-84
2022/10/29 07:45:27;;;;;;;12.90;3.50;;;;;;;;;;103555;1289;22493;-86
2022/10/29 07:47:58;;;;;;;10.80;3.40;;;;;;;;;;103352;1285;22541;-85
2022/10/29 07:50:25;;;;;;;12.80;3.10;;;;;;;;;;103371;1281;24284;-85
2022/10/29 07:52:52;;;;;;;15.50;3.80;;;;;;;;;;103432;1275;25306;-85
2022/10/29 07:55:19;;;;;;;15.20;4.00;;;;;;;;;;103520;1278;23373;-86
2022/10/29 07:57:45;;;;;;;11.20;4.00;;;;;;;;;;103508;1275;22713;-85
2022/10/29 08:00:13;;;;;;;15.90;3.60;;;;;;;;;;103494;1278;25343;-86
2022/10/29 08:02:41;;;;;;;13.50;4.30;;;;;;;;;;103468;1289;22478;-87
2022/10/29 08:05:07;;;;;;;12.30;3.70;;;;;;;;;;103534;1288;22518;-85
2022/10/29 08:07:34;;;;;;;14.60;4.10;;;;;;;;;;103559;1275;22492;-84
2022/10/29 08:10:01;;;;;;;18.00;4.60;;;;;;;;;;103437;1285;23996;-89
2022/10/29 08:12:28;;;;;;;21.30;4.60;;;;;;;;;;103564;1306;22470;-85
2022/10/29 08:14:55;;;;;;;13.40;4.10;;;;;;;;;;103531;1282;22469;-84
2022/10/29 08:17:21;;;;;;;15.50;4.00;;;;;;;;;;103550;1292;25305;-84
2022/10/29 08:19:48;;;;;;;11.30;4.20;;;;;;;;;;103505;1306;24314;-86
2022/10/29 08:22:14;;;;;;;9.90;4.50;;;;;;;;;;103637;1305;22474;-84
2022/10/29 08:24:41;;;;;;;11.40;4.00;;;;;;;;;;103405;1282;23855;-90
2022/10/29 08:27:08;;;;;;;13.90;4.50;;;;;;;;;;103578;1281;22504;-85
2022/10/29 08:29:34;;;;;;;15.10;4.40;;;;;;;;;;103491;1285;22465;-87
2022/10/29 08:32:01;;;;;;;13.60;4.10;;;;;;;;;;103342;1285;24243;-87
2022/10/29 08:34:28;;;;;;;13.00;3.90;;;;;;;;;;103386;1293;22477;-87
2022/10/29 08:36:54;;;;;;;12.00;3.90;;;;;;;;;;103436;1284;22488;-85
2022/10/29 08:39:21;;;;;;;11.00;3.50;;;;;;;;;;103464;1283;22479;-85
2022/10/29 08:41:56;;;;;;;12.30;3.60;;;;;;;;;;103443;1293;24232;-82
2022/10/29 08:44:24;;;;;;;11.90;3.70;;;;;;;;;;103272;1306;24238;-90
2022/10/29 08:46:56;;;;;;;12.10;3.70;;;;;;;;;;103284;1286;22585;-91
2022/10/29 08:49:25;;;;;;;13.80;3.70;;;;;;;;;;103401;1306;25283;-89
2022/10/29 08:51:59;;;;;;;12.40;4.70;;;;;;;;;;103404;1306;22475;-91
2022/10/29 08:54:29;;;;;;;16.30;5.30;;;;;;;;;;103498;1299;22853;-88
2022/10/29 08:56:57;;;;;;;12.40;5.30;;;;;;;;;;103498;1304;22480;-85
2022/10/29 08:59:25;;;;;;;13.30;5.00;;;;;;;;;;103444;1282;22479;-86
2022/10/29 09:01:52;;;;;;;12.40;3.80;;;;;;;;;;103419;1299;24471;-86
2022/10/29 09:04:32;;;;;;;12.80;3.90;;;;;;;;;;103488;1306;25009;-86
2022/10/29 09:07:04;;;;;;;12.70;3.80;;;;;;;;;;103518;1305;22461;-85
2022/10/29 09:09:38;;;;;;;11.40;4.80;;;;;;;;;;103494;1284;25287;-86
2022/10/29 09:12:24;;;;;;;12.40;4.60;;;;;;;;;;103484;1281;26477;-88
2022/10/29 09:15:09;;;;;;;13.80;4.30;;;;;;;;;;103488;1282;21720;-86
2022/10/29 09:17:52;;;;;;;11.30;3.40;;;;;;;;;;103440;1284;22474;-86
2022/10/29 09:20:29;;;;;;;8.50;3.60;;;;;;;;;;103457;1306;22484;-90
2022/10/29 09:22:58;;;;;;;10.20;3.80;;;;;;;;;;103506;1307;25397;-86
2022/10/29 09:25:25;;;;;;;15.50;4.10;;;;;;;;;;103681;1304;24418;-85
2022/10/29 09:28:06;;;;;;;10.50;4.10;;;;;;;;;;103609;1304;24317;-90
2022/10/29 09:30:39;;;;;;;12.10;3.40;;;;;;;;;;103509;1289;22472;-89
2022/10/29 09:33:10;;;;;;;12.30;3.20;;;;;;;;;;103609;1304;25292;-87
2022/10/29 09:35:39;;;;;;;11.30;3.50;;;;;;;;;;103768;1307;22464;-87
2022/10/29 09:38:11;;;;;;;10.20;3.50;;;;;;;;;;103685;1304;23852;-86
2022/10/29 09:40:39;;;;;;;11.70;3.40;;;;;;;;;;103715;1298;24211;-85
2022/10/29 09:43:12;;;;;;;11.80;3.30;;;;;;;;;;103445;1285;22507;-88
2022/10/29 09:45:45;;;;;;;13.00;3.70;;;;;;;;;;103598;1278;22465;-89
2022/10/29 09:48:26;;;;;;;11.80;3.90;;;;;;;;;;103437;1282;25389;-84
2022/10/29 09:50:58;;;;;;;15.50;3.60;;;;;;;;;;103448;1282;25475;-83
2022/10/29 09:53:25;;;;;;;11.00;3.60;;;;;;;;;;103620;1274;22461;-85
2022/10/29 09:55:52;;;;;;;10.70;3.80;;;;;;;;;;103520;1289;22483;-85
2022/10/29 09:58:20;;;;;;;11.60;3.10;;;;;;;;;;103644;1283;22486;-86
2022/10/29 10:00:47;;;;;;;10.20;3.20;;;;;;;;;;103527;1289;25506;-86
2022/10/29 10:03:20;;;;;;;11.80;3.20;;;;;;;;;;103478;1275;22470;-84
2022/10/29 10:05:56;;;;;;;10.70;3.10;;;;;;;;;;103506;1282;22478;-86
2022/10/29 10:08:23;;;;;;;16.60;4.20;;;;;;;;;;103459;1299;22488;-91
2022/10/29 10:10:50;;;;;;;10.10;3.40;;;;;;;;;;103521;1307;22494;-85
2022/10/29 10:13:18;;;;;;;11.90;3.00;;;;;;;;;;103656;1287;22486;-86
2022/10/29 10:16:14;;;;;;;12.70;3.20;;;;;;;;;;103605;1282;22489;-84
2022/10/29 10:18:41;;;;;;;12.20;3.40;;;;;;;;;;103393;1284;22711;-85
2022/10/29 10:21:12;;;;;;;10.20;3.40;;;;;;;;;;103580;1282;24321;-83
2022/10/29 10:23:43;;;;;;;10.40;3.50;;;;;;;;;;103526;1278;25224;-85
2022/10/29 10:26:32;;;;;;;11.80;3.40;;;;;;;;;;103585;1282;25244;-84
2022/10/29 10:29:05;;;;;;;11.00;3.30;;;;;;;;;;103423;1275;24820;-85
2022/10/29 10:31:31;;;;;;;13.60;3.80;;;;;;;;;;103548;1289;24561;-85
2022/10/29 10:33:58;;;;;;;9.90;3.10;;;;;;;;;;103428;1282;22516;-87
2022/10/29 10:36:27;;;;;;;13.90;3.50;;;;;;;;;;103782;1275;25340;-82
2022/10/29 10:38:56;;;;;;;12.50;3.60;;;;;;;;;;103775;1285;25225;-85
2022/10/29 10:41:26;;;;;;;11.00;3.60;;;;;;;;;;103542;1282;25672;-87
2022/10/29 10:43:55;;;;;;;10.70;3.50;;;;;;;;;;103684;1289;24503;-87
2022/10/29 10:46:25;;;;;;;10.80;3.80;;;;;;;;;;103563;1291;24247;-87
2022/10/29 10:48:58;;;;;;;10.00;3.50;;;;;;;;;;103711;1288;24197;-84
2022/10/29 10:51:35;;;;;;;8.90;3.50;;;;;;;;;;103611;1289;23239;-88
2022/10/29 10:54:03;;;;;;;13.30;3.50;;;;;;;;;;103470;1279;22576;-91
2022/10/29 10:56:31;;;;;;;9.90;3.10;;;;;;;;;;103441;1284;22813;-89
2022/10/29 10:59:04;;;;;;;21.10;3.90;;;;;;;;;;103540;1275;24436;-88
2022/10/29 11:01:36;;;;;;;13.30;3.60;;;;;;;;;;103507;1285;22481;-87
2022/10/29 11:04:08;;;;;;;11.30;3.20;;;;;;;;;;103451;1304;22515;-91
2022/10/29 11:06:37;;;;;;;14.80;3.10;;;;;;;;;;103673;1304;23892;-89
2022/10/29 11:09:13;;;;;;;9.30;2.90;;;;;;;;;;103442;1306;24305;-86
2022/10/29 11:11:49;;;;;;;9.70;3.30;;;;;;;;;;103396;1304;26689;-83
2022/10/29 11:14:23;;;;;;;11.70;3.20;;;;;;;;;;103430;1303;22479;-89
2022/10/29 11:16:53;;;;;;;11.10;3.60;;;;;;;;;;103422;1305;24296;-85
2022/10/29 11:19:27;;;;;;;11.00;3.70;;;;;;;;;;106316;1306;22478;-87
2022/10/29 11:22:13;;;;;;;12.20;3.90;;;;;;;;;;103516;1306;21740;-84
2022/10/29 11:24:58;;;;;;;13.20;3.80;;;;;;;;;;103655;1306;22592;-84
2022/10/29 11:27:28;;;;;;;11.40;3.40;;;;;;;;;;103637;1304;22606;-87
2022/10/29 11:30:04;;;;;;;14.00;3.90;;;;;;;;;;103712;1307;25219;-87
2022/10/29 11:32:37;;;;;;;10.50;3.30;;;;;;;;;;103599;1289;22470;-86
2022/10/29 11:35:19;;;;;;;13.20;3.70;;;;;;;;;;103478;1289;22470;-88
2022/10/29 11:37:57;;;;;;;14.10;3.70;;;;;;;;;;103293;1301;23193;-90
2022/10/29 11:40:40;;;;;;;12.70;3.50;;;;;;;;;;103432;1307;24238;-86
2022/10/29 11:43:10;;;;;;;12.50;3.40;;;;;;;;;;103342;1305;24309;-87
2022/10/29 11:45:42;;;;;;;9.90;3.50;;;;;;;;;;103587;1293;22605;-84
2022/10/29 11:48:19;;;;;;;10.10;3.10;;;;;;;;;;103465;1304;23543;-86
2022/10/29 11:51:02;;;;;;;13.60;3.40;;;;;;;;;;103522;1307;24244;-85
2022/10/29 11:53:35;;;;;;;14.00;3.70;;;;;;;;;;103689;1307;25386;-86
2022/10/29 11:56:21;;;;;;;10.90;3.20;;;;;;;;;;103405;1307;24238;-85
2022/10/29 11:58:53;;;;;;;16.50;3.90;;;;;;;;;;107131;1299;22720;-84
2022/10/29 12:01:28;;;;;;;13.90;3.70;;;;;;;;;;106978;1306;22764;-84
2022/10/29 12:03:55;;;;;;;10.90;3.10;;;;;;;;;;106970;1306;22908;-82
2022/10/29 12:06:27;;;;;;;13.70;3.30;;;;;;;;;;107093;1291;22078;-85
2022/10/29 12:08:53;;;;;;;11.80;3.20;;;;;;;;;;107013;1304;22545;-84
2022/10/29 12:11:42;;;;;;;13.50;3.40;;;;;;;;;;106961;1304;22060;-84
2022/10/29 12:14:21;;;;;;;13.30;3.40;;;;;;;;;;106932;1304;21877;-84
2022/10/29 12:16:47;;;;;;;10.50;3.20;;;;;;;;;;106788;1307;22058;-84
2022/10/29 12:19:24;;;;;;;13.60;3.60;;;;;;;;;;107021;1298;22909;-84
2022/10/29 12:22:09;;;;;;;11.70;3.60;;;;;;;;;;106860;1307;22061;-84
2022/10/29 12:24:52;;;;;;;11.90;3.60;;;;;;;;;;107043;1304;23066;-84
2022/10/29 12:27:26;;;;;;;11.50;3.50;;;;;;;;;;107353;1291;22869;-84
2022/10/29 12:30:01;;;;;;;11.40;3.20;;;;;;;;;;106974;1292;22016;-84
2022/10/29 12:32:32;;;;;;;10.90;3.30;;;;;;;;;;106954;1304;22159;-85
2022/10/29 12:35:11;;;;;;;14.40;3.40;;;;;;;;;;106907;1306;22697;-84
2022/10/29 12:37:40;;;;;;;13.30;3.60;;;;;;;;;;107141;1299;22042;-85
2022/10/29 12:40:15;;;;;;;15.30;3.50;;;;;;;;;;106918;1300;22054;-84
2022/10/29 12:42:42;;;;;;;11.90;3.50;;;;;;;;;;106947;1298;22084;-84
2022/10/29 12:45:12;;;;;;;13.60;4.00;;;;;;;;;;107033;1304;22105;-85
2022/10/29 12:47:50;;;;;;;12.30;3.60;;;;;;;;;;107323;1291;22141;-85
2022/10/29 12:50:16;;;;;;;11.10;4.20;;;;;;;;;;106957;1304;22360;-84
2022/10/29 12:52:43;;;;;;;12.70;4.00;;;;;;;;;;107106;1304;22082;-84
2022/10/29 12:55:11;;;;;;;10.60;3.40;;;;;;;;;;106934;1304;22425;-83
2022/10/29 12:57:38;;;;;;;12.20;4.20;;;;;;;;;;106924;1307;22077;-84
2022/10/29 13:00:22;;;;;;;12.90;3.80;;;;;;;;;;107030;1297;22087;-85
2022/10/29 13:02:50;;;;;;;12.30;4.40;;;;;;;;;;107032;1307;22143;-84
2022/10/29 13:05:30;;;;;;;13.30;4.10;;;;;;;;;;106800;1293;22049;-84
2022/10/29 13:08:03;;;;;;;10.60;4.00;;;;;;;;;;106810;1301;22087;-84
2022/10/29 13:10:30;;;;;;;9.80;3.70;;;;;;;;;;107042;1300;22053;-87
2022/10/29 13:12:59;;;;;;;12.40;3.80;;;;;;;;;;107010;1306;22681;-85
2022/10/29 13:15:25;;;;;;;16.60;4.50;;;;;;;;;;107304;1285;22647;-87
2022/10/29 13:17:52;;;;;;;11.90;4.00;;;;;;;;;;107206;1285;22737;-85
2022/10/29 13:20:28;;;;;;;11.80;3.60;;;;;;;;;;106762;1306;22095;-86
2022/10/29 13:22:56;;;;;;;10.00;3.50;;;;;;;;;;107225;1285;21922;-86
2022/10/29 13:25:32;;;;;;;11.50;4.60;;;;;;;;;;106781;1306;22170;-84
2022/10/29 13:27:59;;;;;;;11.90;3.70;;;;;;;;;;106834;1307;22788;-85
2022/10/29 13:30:28;;;;;;;10.10;3.90;;;;;;;;;;107006;1307;22051;-85
2022/10/29 13:32:55;;;;;;;10.30;3.90;;;;;;;;;;107255;1299;22079;-85
2022/10/29 13:35:24;;;;;;;9.70;3.70;;;;;;;;;;106994;1307;22330;-85
2022/10/29 13:37:55;;;;;;;9.80;3.80;;;;;;;;;;106849;1307;22073;-85
2022/10/29 13:40:21;;;;;;;11.00;4.00;;;;;;;;;;106765;1306;22104;-86
2022/10/29 13:43:00;;;;;;;12.90;3.90;;;;;;;;;;106761;1306;22083;-85
2022/10/29 13:45:28;;;;;;;11.50;3.80;;;;;;;;;;106934;1301;22103;-86
2022/10/29 13:48:03;;;;;;;11.80;4.00;;;;;;;;;;106868;1300;22057;-85
2022/10/29 13:50:32;;;;;;;11.40;4.50;;;;;;;;;;107169;1299;21969;-86
2022/10/29 13:53:00;;;;;;;11.10;3.90;;;;;;;;;;106777;1307;22085;-86
2022/10/29 13:55:29;;;;;;;12.30;4.30;;;;;;;;;;106885;1300;22110;-86
2022/10/29 13:58:05;;;;;;;14.70;4.70;;;;;;;;;;106802;1306;22150;-85
2022/10/29 14:00:33;;;;;;;15.00;5.10;;;;;;;;;;107067;1284;22766;-86
2022/10/29 14:03:03;;;;;;;16.30;5.30;;;;;;;;;;107209;1285;22751;-87
2022/10/29 14:05:41;;;;;;;15.10;4.50;;;;;;;;;;106900;1294;22082;-86
2022/10/29 14:08:20;;;;;;;13.30;4.40;;;;;;;;;;106828;1307;22070;-87
2022/10/29 14:10:48;;;;;;;11.00;4.50;;;;;;;;;;106954;1306;22593;-86
2022/10/29 14:13:17;;;;;;;12.60;3.90;;;;;;;;;;106922;1307;22029;-86
2022/10/29 14:16:03;;;;;;;10.60;4.20;;;;;;;;;;106975;1306;22114;-86
2022/10/29 14:18:30;;;;;;;12.10;4.40;;;;;;;;;;106905;1306;23124;-87
2022/10/29 14:20:58;;;;;;;14.30;4.90;;;;;;;;;;107138;1299;21847;-87
2022/10/29 14:23:25;;;;;;;10.70;5.60;;;;;;;;;;107114;1285;22102;-85
2022/10/29 14:25:53;;;;;;;21.60;9.60;;;;;;;;;;106867;1306;22075;-86
2022/10/29 14:28:28;;;;;;;29.40;13.30;;;;;;;;;;106916;1306;22276;-87
2022/10/29 14:31:12;;;;;;;27.10;12.50;;;;;;;;;;106934;1306;22115;-85
2022/10/29 14:33:40;;;;;;;28.00;12.60;;;;;;;;;;106867;1307;22054;-86
2022/10/29 14:36:07;;;;;;;33.00;16.20;;;;;;;;;;106882;1306;22769;-87
2022/10/29 14:38:40;;;;;;;23.10;10.10;;;;;;;;;;106920;1306;22143;-87
2022/10/29 14:41:07;;;;;;;23.00;10.80;;;;;;;;;;106749;1306;22755;-86
2022/10/29 14:43:34;;;;;;;25.40;10.30;;;;;;;;;;107143;1292;22783;-86